sensor_id;sensor_type;location;lat;lon;timestamp;pressure;altitude;pressure_sealevel;temperature;humidity
56142;BME280;42018;48.588;10.836;2023-07-28T00:00:24;96136.03;;;17.23;83.78
56142;BME280;42018;48.588;10.836;2023-07-28T00:03:10;96127.50;;;17.21;83.61
56142;BME280;42018;48.588;10.836;2023-07-28T00:05:55;96136.81;;;17.24;82.67
56142;BME280;42018;48.588;10.836;2023-07-28T00:08:41;96142.94;;;17.24;82.13
56142;BME280;42018;48.588;10.836;2023-07-28T00:11:27;96132.69;;;17.27;82.17
56142;BME280;42018;48.588;10.836;2023-07-28T00:14:13;96130.00;;;16.97;84.28
56142;BME280;42018;48.588;10.836;2023-07-28T00:17:01;96121.16;;;16.96;84.45
56142;BME280;42018;48.588;10.836;2023-07-28T00:19:49;96125.09;;;17.08;83.04
56142;BME280;42018;48.588;10.836;2023-07-28T00:22:34;96126.78;;;17.12;82.48
56142;BME280;42018;48.588;10.836;2023-07-28T00:25:20;96123.19;;;17.08;82.41
56142;BME280;42018;48.588;10.836;2023-07-28T00:28:07;96117.63;;;17.13;81.67
56142;BME280;42018;48.588;10.836;2023-07-28T00:30:53;96117.00;;;17.16;81.37
56142;BME280;42018;48.588;10.836;2023-07-28T00:33:38;96115.31;;;17.12;81.52
56142;BME280;42018;48.588;10.836;2023-07-28T00:36:24;96112.91;;;17.19;80.74
56142;BME280;42018;48.588;10.836;2023-07-28T00:39:10;96110.53;;;17.17;80.59
56142;BME280;42018;48.588;10.836;2023-07-28T00:41:56;96110.38;;;17.14;80.29
56142;BME280;42018;48.588;10.836;2023-07-28T00:44:41;96116.66;;;17.18;80.05
56142;BME280;42018;48.588;10.836;2023-07-28T00:47:27;96104.72;;;17.15;79.96
56142;BME280;42018;48.588;10.836;2023-07-28T00:50:13;96113.84;;;17.14;79.43
56142;BME280;42018;48.588;10.836;2023-07-28T00:52:59;96116.63;;;16.97;79.74
56142;BME280;42018;48.588;10.836;2023-07-28T00:55:45;96122.34;;;16.87;80.38
56142;BME280;42018;48.588;10.836;2023-07-28T00:58:30;96120.25;;;16.92;79.91
56142;BME280;42018;48.588;10.836;2023-07-28T01:01:16;96117.72;;;16.96;79.55
56142;BME280;42018;48.588;10.836;2023-07-28T01:04:02;96124.66;;;16.97;78.79
56142;BME280;42018;48.588;10.836;2023-07-28T01:07:04;96119.66;;;16.87;77.95
56142;BME280;42018;48.588;10.836;2023-07-28T01:10:11;96123.59;;;16.72;78.11
56142;BME280;42018;48.588;10.836;2023-07-28T01:12:59;96129.72;;;16.90;78.43
56142;BME280;42018;48.588;10.836;2023-07-28T01:15:44;96129.25;;;16.88;78.13
56142;BME280;42018;48.588;10.836;2023-07-28T01:18:30;96137.28;;;16.88;78.18
56142;BME280;42018;48.588;10.836;2023-07-28T01:21:22;96130.22;;;16.66;79.01
56142;BME280;42018;48.588;10.836;2023-07-28T01:24:49;96131.03;;;16.49;79.34
56142;BME280;42018;48.588;10.836;2023-07-28T01:27:36;96133.06;;;16.61;80.20
56142;BME280;42018;48.588;10.836;2023-07-28T01:30:23;96140.59;;;16.67;79.39
56142;BME280;42018;48.588;10.836;2023-07-28T01:33:13;96142.22;;;16.42;80.46
56142;BME280;42018;48.588;10.836;2023-07-28T01:35:59;96142.09;;;16.30;81.25
56142;BME280;42018;48.588;10.836;2023-07-28T01:38:46;96133.91;;;16.35;81.18
56142;BME280;42018;48.588;10.836;2023-07-28T01:41:31;96132.50;;;16.38;80.76
56142;BME280;42018;48.588;10.836;2023-07-28T01:44:17;96138.44;;;16.43;80.30
56142;BME280;42018;48.588;10.836;2023-07-28T01:47:03;96141.25;;;16.47;79.97
56142;BME280;42018;48.588;10.836;2023-07-28T01:49:48;96134.50;;;16.49;79.54
56142;BME280;42018;48.588;10.836;2023-07-28T01:52:34;96127.47;;;16.27;81.37
56142;BME280;42018;48.588;10.836;2023-07-28T01:55:20;96135.63;;;16.40;80.54
56142;BME280;42018;48.588;10.836;2023-07-28T01:58:06;96130.44;;;16.35;80.54
56142;BME280;42018;48.588;10.836;2023-07-28T02:00:51;96132.34;;;16.17;81.11
56142;BME280;42018;48.588;10.836;2023-07-28T02:03:37;96130.94;;;16.19;80.46
56142;BME280;42018;48.588;10.836;2023-07-28T02:06:23;96121.63;;;16.25;79.34
56142;BME280;42018;48.588;10.836;2023-07-28T02:09:08;96119.91;;;16.21;79.60
56142;BME280;42018;48.588;10.836;2023-07-28T02:11:56;96123.84;;;16.23;79.43
56142;BME280;42018;48.588;10.836;2023-07-28T02:14:42;96119.16;;;16.12;80.26
56142;BME280;42018;48.588;10.836;2023-07-28T02:17:28;96110.81;;;16.13;79.63
56142;BME280;42018;48.588;10.836;2023-07-28T02:20:13;96120.25;;;16.02;80.01
56142;BME280;42018;48.588;10.836;2023-07-28T02:23:00;96112.38;;;15.97;79.45
56142;BME280;42018;48.588;10.836;2023-07-28T02:25:46;96105.94;;;16.07;79.48
56142;BME280;42018;48.588;10.836;2023-07-28T02:28:34;96104.38;;;16.06;79.28
56142;BME280;42018;48.588;10.836;2023-07-28T02:31:20;96106.56;;;16.03;78.91
56142;BME280;42018;48.588;10.836;2023-07-28T02:34:06;96108.47;;;16.03;79.08
56142;BME280;42018;48.588;10.836;2023-07-28T02:36:52;96095.25;;;16.15;78.28
56142;BME280;42018;48.588;10.836;2023-07-28T02:39:37;96096.97;;;16.20;77.85
56142;BME280;42018;48.588;10.836;2023-07-28T02:42:23;96087.88;;;16.12;78.01
56142;BME280;42018;48.588;10.836;2023-07-28T02:45:10;96093.22;;;16.03;78.62
56142;BME280;42018;48.588;10.836;2023-07-28T02:47:56;96097.78;;;15.94;78.29
56142;BME280;42018;48.588;10.836;2023-07-28T02:50:45;96090.38;;;15.83;78.74
56142;BME280;42018;48.588;10.836;2023-07-28T02:53:32;96093.84;;;15.74;78.81
56142;BME280;42018;48.588;10.836;2023-07-28T02:56:17;96096.81;;;15.55;79.85
56142;BME280;42018;48.588;10.836;2023-07-28T02:59:04;96101.66;;;15.45;79.65
56142;BME280;42018;48.588;10.836;2023-07-28T05:06:05;96174.31;;;16.34;78.49
56142;BME280;42018;48.588;10.836;2023-07-28T05:08:45;96169.78;;;16.17;78.44
56142;BME280;42018;48.588;10.836;2023-07-28T06:26:35;96174.22;;;18.88;77.91
56142;BME280;42018;48.588;10.836;2023-07-28T06:29:21;96181.59;;;18.79;76.90
56142;BME280;42018;48.588;10.836;2023-07-28T06:32:07;96170.88;;;18.91;75.44
56142;BME280;42018;48.588;10.836;2023-07-28T06:34:54;96172.66;;;18.87;76.07
56142;BME280;42018;48.588;10.836;2023-07-28T06:37:42;96192.75;;;19.14;76.76
56142;BME280;42018;48.588;10.836;2023-07-28T06:40:28;96189.72;;;19.16;74.53
56142;BME280;42018;48.588;10.836;2023-07-28T06:43:13;96198.56;;;19.16;74.75
56142;BME280;42018;48.588;10.836;2023-07-28T07:17:08;96217.06;;;19.91;79.00
56142;BME280;42018;48.588;10.836;2023-07-28T07:35:17;96221.78;;;20.06;80.64
56142;BME280;42018;48.588;10.836;2023-07-28T07:38:06;96235.38;;;20.26;81.39
56142;BME280;42018;48.588;10.836;2023-07-28T07:46:04;96237.34;;;20.41;81.01
56142;BME280;42018;48.588;10.836;2023-07-28T07:48:52;96222.91;;;20.46;79.71
56142;BME280;42018;48.588;10.836;2023-07-28T07:51:46;96237.69;;;20.52;79.30
56142;BME280;42018;48.588;10.836;2023-07-28T07:54:31;96228.94;;;20.55;79.80
56142;BME280;42018;48.588;10.836;2023-07-28T07:57:17;96233.44;;;20.51;79.64
56142;BME280;42018;48.588;10.836;2023-07-28T08:00:03;96235.34;;;20.50;77.48
56142;BME280;42018;48.588;10.836;2023-07-28T08:02:48;96237.13;;;20.46;79.42
56142;BME280;42018;48.588;10.836;2023-07-28T08:10:44;96233.69;;;20.74;78.92
56142;BME280;42018;48.588;10.836;2023-07-28T08:13:35;96232.13;;;20.73;78.02
56142;BME280;42018;48.588;10.836;2023-07-28T08:21:22;96241.91;;;20.93;78.98
56142;BME280;42018;48.588;10.836;2023-07-28T08:24:08;96240.72;;;21.07;78.87
56142;BME280;42018;48.588;10.836;2023-07-28T08:26:53;96248.63;;;21.15;78.83
56142;BME280;42018;48.588;10.836;2023-07-28T08:29:39;96249.78;;;21.30;79.16
56142;BME280;42018;48.588;10.836;2023-07-28T08:32:27;96252.47;;;21.14;78.64
56142;BME280;42018;48.588;10.836;2023-07-28T09:26:58;96254.88;;;21.79;69.44
56142;BME280;42018;48.588;10.836;2023-07-28T09:29:43;96247.91;;;21.78;69.32
56142;BME280;42018;48.588;10.836;2023-07-28T09:40:12;96256.59;;;21.56;71.72
56142;BME280;42018;48.588;10.836;2023-07-28T09:42:58;96264.88;;;21.47;72.46
56142;BME280;42018;48.588;10.836;2023-07-28T09:45:44;96263.47;;;21.37;73.33
56142;BME280;42018;48.588;10.836;2023-07-28T09:48:29;96273.63;;;21.28;73.67
56142;BME280;42018;48.588;10.836;2023-07-28T09:51:17;96274.31;;;21.25;73.81
56142;BME280;42018;48.588;10.836;2023-07-28T09:54:11;96276.03;;;21.33;74.63
56142;BME280;42018;48.588;10.836;2023-07-28T09:56:57;96273.69;;;21.32;74.90
56142;BME280;42018;48.588;10.836;2023-07-28T11:06:57;96304.69;;;21.54;74.57
56142;BME280;42018;48.588;10.836;2023-07-28T11:09:43;96302.78;;;22.02;74.81
56142;BME280;42018;48.588;10.836;2023-07-28T11:12:29;96306.06;;;22.42;72.69
56142;BME280;42018;48.588;10.836;2023-07-28T11:15:15;96299.47;;;22.79;72.67
56142;BME280;42018;48.588;10.836;2023-07-28T11:18:03;96288.53;;;22.91;70.29
56142;BME280;42018;48.588;10.836;2023-07-28T11:20:48;96303.16;;;22.90;68.84
56142;BME280;42018;48.588;10.836;2023-07-28T11:23:33;96303.69;;;23.34;68.29
56142;BME280;42018;48.588;10.836;2023-07-28T11:26:20;96293.69;;;23.38;66.35
56142;BME280;42018;48.588;10.836;2023-07-28T11:29:06;96282.97;;;23.23;64.87
56142;BME280;42018;48.588;10.836;2023-07-28T11:31:52;96295.88;;;23.10;63.67
56142;BME280;42018;48.588;10.836;2023-07-28T11:34:38;96309.78;;;22.73;63.65
56142;BME280;42018;48.588;10.836;2023-07-28T11:37:23;96298.47;;;22.87;63.72
56142;BME280;42018;48.588;10.836;2023-07-28T11:40:10;96293.50;;;23.51;62.40
56142;BME280;42018;48.588;10.836;2023-07-28T11:42:59;96287.06;;;23.78;62.11
56142;BME280;42018;48.588;10.836;2023-07-28T11:45:44;96283.75;;;23.88;59.86
56142;BME280;42018;48.588;10.836;2023-07-28T11:48:30;96293.19;;;23.75;59.61
56142;BME280;42018;48.588;10.836;2023-07-28T11:51:17;96290.19;;;23.80;59.86
56142;BME280;42018;48.588;10.836;2023-07-28T11:54:04;96290.84;;;23.74;59.25
56142;BME280;42018;48.588;10.836;2023-07-28T11:56:51;96295.97;;;23.79;60.17
56142;BME280;42018;48.588;10.836;2023-07-28T11:59:37;96300.47;;;23.71;59.22
56142;BME280;42018;48.588;10.836;2023-07-28T12:02:27;96296.53;;;23.46;59.51
56142;BME280;42018;48.588;10.836;2023-07-28T12:05:13;96294.03;;;23.14;59.85
56142;BME280;42018;48.588;10.836;2023-07-28T12:08:01;96302.13;;;23.14;58.90
56142;BME280;42018;48.588;10.836;2023-07-28T12:10:54;96303.34;;;23.16;60.22
56142;BME280;42018;48.588;10.836;2023-07-28T12:13:50;96297.00;;;23.28;59.99
56142;BME280;42018;48.588;10.836;2023-07-28T12:16:40;96303.50;;;23.47;59.48
56142;BME280;42018;48.588;10.836;2023-07-28T12:19:29;96292.97;;;23.64;58.90
56142;BME280;42018;48.588;10.836;2023-07-28T12:22:14;96290.59;;;23.82;59.29
56142;BME280;42018;48.588;10.836;2023-07-28T12:24:59;96293.13;;;23.95;58.39
56142;BME280;42018;48.588;10.836;2023-07-28T12:27:45;96291.47;;;24.13;57.68
56142;BME280;42018;48.588;10.836;2023-07-28T12:30:30;96281.03;;;24.15;58.27
56142;BME280;42018;48.588;10.836;2023-07-28T12:33:16;96288.03;;;24.43;57.41
56142;BME280;42018;48.588;10.836;2023-07-28T12:36:01;96283.97;;;24.03;57.38
56142;BME280;42018;48.588;10.836;2023-07-28T12:38:47;96282.50;;;24.35;58.03
56142;BME280;42018;48.588;10.836;2023-07-28T12:41:32;96274.44;;;24.66;57.08
56142;BME280;42018;48.588;10.836;2023-07-28T12:44:22;96277.19;;;24.69;54.57
56142;BME280;42018;48.588;10.836;2023-07-28T12:47:08;96279.75;;;24.58;55.21
56142;BME280;42018;48.588;10.836;2023-07-28T12:49:53;96285.31;;;24.69;55.88
56142;BME280;42018;48.588;10.836;2023-07-28T12:52:39;96288.72;;;24.63;56.39
56142;BME280;42018;48.588;10.836;2023-07-28T12:55:25;96289.38;;;24.56;55.48
56142;BME280;42018;48.588;10.836;2023-07-28T12:58:12;96288.75;;;24.66;55.49
56142;BME280;42018;48.588;10.836;2023-07-28T13:00:57;96291.56;;;24.47;56.73
56142;BME280;42018;48.588;10.836;2023-07-28T13:03:44;96293.94;;;24.48;55.95
56142;BME280;42018;48.588;10.836;2023-07-28T13:06:29;96293.88;;;24.45;54.60
56142;BME280;42018;48.588;10.836;2023-07-28T13:09:17;96296.25;;;24.50;54.82
56142;BME280;42018;48.588;10.836;2023-07-28T13:12:03;96298.78;;;24.39;55.92
56142;BME280;42018;48.588;10.836;2023-07-28T13:14:48;96296.75;;;24.32;56.24
56142;BME280;42018;48.588;10.836;2023-07-28T13:17:33;96297.72;;;24.17;55.50
56142;BME280;42018;48.588;10.836;2023-07-28T13:20:19;96302.69;;;24.15;56.72
56142;BME280;42018;48.588;10.836;2023-07-28T13:23:04;96313.47;;;24.11;58.46
56142;BME280;42018;48.588;10.836;2023-07-28T13:25:50;96308.56;;;23.94;57.66
56142;BME280;42018;48.588;10.836;2023-07-28T13:28:35;96321.56;;;23.85;56.68
56142;BME280;42018;48.588;10.836;2023-07-28T13:31:21;96324.34;;;23.88;57.22
56142;BME280;42018;48.588;10.836;2023-07-28T13:34:06;96341.31;;;23.66;58.31
56142;BME280;42018;48.588;10.836;2023-07-28T13:36:53;96388.16;;;22.10;70.35
56142;BME280;42018;48.588;10.836;2023-07-28T13:39:47;96379.22;;;21.05;77.79
56142;BME280;42018;48.588;10.836;2023-07-28T13:46:33;96357.69;;;20.53;84.78
56142;BME280;42018;48.588;10.836;2023-07-28T13:49:18;96353.84;;;20.78;85.50
56142;BME280;42018;48.588;10.836;2023-07-28T14:40:57;96316.63;;;22.16;77.73
56142;BME280;42018;48.588;10.836;2023-07-28T14:43:42;96317.69;;;22.27;78.98
56142;BME280;42018;48.588;10.836;2023-07-28T14:46:46;96324.78;;;22.35;78.70
56142;BME280;42018;48.588;10.836;2023-07-28T14:49:31;96329.91;;;22.40;79.29
56142;BME280;42018;48.588;10.836;2023-07-28T14:52:16;96322.94;;;22.39;78.77
56142;BME280;42018;48.588;10.836;2023-07-28T14:55:15;96320.47;;;22.50;78.10
56142;BME280;42018;48.588;10.836;2023-07-28T14:58:00;96316.16;;;22.65;76.14
56142;BME280;42018;48.588;10.836;2023-07-28T16:12:20;96329.19;;;22.59;76.96
56142;BME280;42018;48.588;10.836;2023-07-28T16:15:06;96340.25;;;22.54;77.99
56142;BME280;42018;48.588;10.836;2023-07-28T16:17:52;96349.75;;;22.48;77.70
56142;BME280;42018;48.588;10.836;2023-07-28T16:20:37;96341.56;;;22.44;78.12
56142;BME280;42018;48.588;10.836;2023-07-28T16:23:23;96332.75;;;22.47;77.39
56142;BME280;42018;48.588;10.836;2023-07-28T16:26:08;96338.75;;;22.57;76.86
56142;BME280;42018;48.588;10.836;2023-07-28T16:28:54;96343.00;;;22.58;77.66
56142;BME280;42018;48.588;10.836;2023-07-28T16:31:40;96332.13;;;22.54;77.79
56142;BME280;42018;48.588;10.836;2023-07-28T16:34:25;96335.06;;;22.65;77.32
56142;BME280;42018;48.588;10.836;2023-07-28T16:37:10;96321.56;;;22.65;78.27
56142;BME280;42018;48.588;10.836;2023-07-28T16:39:56;96325.56;;;22.71;77.42
56142;BME280;42018;48.588;10.836;2023-07-28T16:42:41;96330.53;;;22.69;79.70
56142;BME280;42018;48.588;10.836;2023-07-28T16:45:27;96335.84;;;22.65;79.71
56142;BME280;42018;48.588;10.836;2023-07-28T16:48:12;96334.88;;;22.74;78.58
56142;BME280;42018;48.588;10.836;2023-07-28T16:50:57;96337.38;;;22.82;78.98
56142;BME280;42018;48.588;10.836;2023-07-28T16:53:43;96330.66;;;22.76;77.63
56142;BME280;42018;48.588;10.836;2023-07-28T16:56:28;96331.97;;;22.82;76.22
56142;BME280;42018;48.588;10.836;2023-07-28T16:59:14;96336.50;;;22.78;76.78
56142;BME280;42018;48.588;10.836;2023-07-28T17:01:59;96336.59;;;22.82;76.87
56142;BME280;42018;48.588;10.836;2023-07-28T17:04:45;96335.44;;;22.83;76.27
56142;BME280;42018;48.588;10.836;2023-07-28T17:07:30;96334.81;;;22.70;74.18
56142;BME280;42018;48.588;10.836;2023-07-28T17:10:16;96347.19;;;22.55;74.58
56142;BME280;42018;48.588;10.836;2023-07-28T17:13:05;96354.53;;;22.55;75.27
56142;BME280;42018;48.588;10.836;2023-07-28T17:15:50;96363.84;;;22.57;75.76
56142;BME280;42018;48.588;10.836;2023-07-28T17:18:36;96364.91;;;22.53;75.59
56142;BME280;42018;48.588;10.836;2023-07-28T17:21:21;96364.34;;;22.63;74.92
56142;BME280;42018;48.588;10.836;2023-07-28T17:24:06;96349.97;;;22.59;75.33
56142;BME280;42018;48.588;10.836;2023-07-28T17:26:52;96355.44;;;22.62;75.38
56142;BME280;42018;48.588;10.836;2023-07-28T17:29:37;96369.75;;;22.63;75.43
56142;BME280;42018;48.588;10.836;2023-07-28T17:32:22;96367.16;;;22.51;76.50
56142;BME280;42018;48.588;10.836;2023-07-28T17:35:08;96375.09;;;22.43;76.43
56142;BME280;42018;48.588;10.836;2023-07-28T17:37:54;96374.00;;;22.29;76.56
56142;BME280;42018;48.588;10.836;2023-07-28T17:40:40;96382.09;;;22.29;76.17
56142;BME280;42018;48.588;10.836;2023-07-28T17:43:25;96392.72;;;22.21;77.56
56142;BME280;42018;48.588;10.836;2023-07-28T17:46:11;96402.34;;;22.07;76.38
56142;BME280;42018;48.588;10.836;2023-07-28T17:48:56;96406.25;;;21.78;76.61
56142;BME280;42018;48.588;10.836;2023-07-28T17:51:42;96411.69;;;21.37;78.15
56142;BME280;42018;48.588;10.836;2023-07-28T17:54:27;96421.25;;;20.82;78.36
56142;BME280;42018;48.588;10.836;2023-07-28T17:57:13;96432.00;;;20.45;80.54
56142;BME280;42018;48.588;10.836;2023-07-28T17:59:58;96426.97;;;20.44;81.48
56142;BME280;42018;48.588;10.836;2023-07-28T18:02:44;96419.34;;;20.33;80.55
56142;BME280;42018;48.588;10.836;2023-07-28T18:05:29;96411.38;;;20.37;81.35
56142;BME280;42018;48.588;10.836;2023-07-28T18:08:15;96410.59;;;20.24;82.96
56142;BME280;42018;48.588;10.836;2023-07-28T18:11:00;96421.03;;;20.14;84.11
56142;BME280;42018;48.588;10.836;2023-07-28T18:13:45;96421.75;;;19.90;85.87
56142;BME280;42018;48.588;10.836;2023-07-28T18:16:31;96420.91;;;19.65;86.43
56142;BME280;42018;48.588;10.836;2023-07-28T18:19:19;96412.91;;;19.89;86.15
56142;BME280;42018;48.588;10.836;2023-07-28T18:22:04;96404.72;;;19.98;85.28
56142;BME280;42018;48.588;10.836;2023-07-28T18:24:49;96397.75;;;19.84;85.46
56142;BME280;42018;48.588;10.836;2023-07-28T18:27:35;96386.44;;;19.79;85.76
56142;BME280;42018;48.588;10.836;2023-07-28T18:30:21;96376.72;;;19.99;85.65
56142;BME280;42018;48.588;10.836;2023-07-28T18:33:06;96377.28;;;20.04;84.46
56142;BME280;42018;48.588;10.836;2023-07-28T18:35:53;96380.09;;;19.96;85.21
56142;BME280;42018;48.588;10.836;2023-07-28T18:38:38;96371.78;;;20.13;84.54
56142;BME280;42018;48.588;10.836;2023-07-28T18:41:24;96369.13;;;20.25;84.31
56142;BME280;42018;48.588;10.836;2023-07-28T18:44:09;96365.31;;;20.26;84.15
56142;BME280;42018;48.588;10.836;2023-07-28T18:46:55;96357.56;;;20.25;83.97
56142;BME280;42018;48.588;10.836;2023-07-28T18:49:40;96358.34;;;20.25;84.08
56142;BME280;42018;48.588;10.836;2023-07-28T18:52:26;96349.81;;;20.23;84.67
56142;BME280;42018;48.588;10.836;2023-07-28T18:55:11;96366.31;;;20.34;84.21
56142;BME280;42018;48.588;10.836;2023-07-28T18:57:56;96370.34;;;20.40;84.10
56142;BME280;42018;48.588;10.836;2023-07-28T19:00:42;96353.19;;;20.32;84.26
56142;BME280;42018;48.588;10.836;2023-07-28T19:03:27;96355.66;;;20.38;82.74
56142;BME280;42018;48.588;10.836;2023-07-28T19:06:17;96360.91;;;20.09;83.62
56142;BME280;42018;48.588;10.836;2023-07-28T19:09:05;96362.28;;;20.28;84.15
56142;BME280;42018;48.588;10.836;2023-07-28T19:11:50;96356.78;;;20.37;84.03
56142;BME280;42018;48.588;10.836;2023-07-28T19:14:36;96354.53;;;20.39;84.01
56142;BME280;42018;48.588;10.836;2023-07-28T19:20:04;96367.91;;;20.35;83.91
56142;BME280;42018;48.588;10.836;2023-07-28T19:22:52;96382.00;;;20.44;83.51
56142;BME280;42018;48.588;10.836;2023-07-28T19:25:45;96385.25;;;20.38;83.20
56142;BME280;42018;48.588;10.836;2023-07-28T19:28:31;96377.84;;;20.22;84.49
56142;BME280;42018;48.588;10.836;2023-07-28T19:31:19;96382.09;;;20.23;84.22
56142;BME280;42018;48.588;10.836;2023-07-28T20:30:57;96453.31;;;19.80;88.06
56142;BME280;42018;48.588;10.836;2023-07-28T20:38:53;96468.41;;;19.31;90.22
56142;BME280;42018;48.588;10.836;2023-07-28T20:44:15;96472.34;;;19.12;91.08
56142;BME280;42018;48.588;10.836;2023-07-28T20:47:01;96471.38;;;18.96;91.33
56142;BME280;42018;48.588;10.836;2023-07-28T20:49:47;96470.16;;;18.85;91.26
56142;BME280;42018;48.588;10.836;2023-07-28T20:52:36;96468.22;;;18.56;93.04
56142;BME280;42018;48.588;10.836;2023-07-28T20:55:21;96463.63;;;18.65;92.92
56142;BME280;42018;48.588;10.836;2023-07-28T20:58:07;96462.16;;;18.67;93.06
56142;BME280;42018;48.588;10.836;2023-07-28T21:00:52;96453.41;;;18.50;93.84
56142;BME280;42018;48.588;10.836;2023-07-28T21:03:38;96458.53;;;18.34;95.72
56142;BME280;42018;48.588;10.836;2023-07-28T21:06:23;96455.25;;;18.28;94.90
56142;BME280;42018;48.588;10.836;2023-07-28T21:09:09;96449.38;;;18.35;94.75
56142;BME280;42018;48.588;10.836;2023-07-28T21:11:54;96457.25;;;18.40;94.74
56142;BME280;42018;48.588;10.836;2023-07-28T21:14:44;96451.13;;;18.31;94.77
56142;BME280;42018;48.588;10.836;2023-07-28T21:17:32;96452.28;;;18.21;96.18
56142;BME280;42018;48.588;10.836;2023-07-28T21:20:18;96454.34;;;18.15;97.76
56142;BME280;42018;48.588;10.836;2023-07-28T21:23:05;96451.28;;;18.34;95.71
56142;BME280;42018;48.588;10.836;2023-07-28T21:25:51;96453.59;;;18.06;98.39
56142;BME280;42018;48.588;10.836;2023-07-28T21:28:36;96456.25;;;18.06;98.41
56142;BME280;42018;48.588;10.836;2023-07-28T21:31:25;96459.25;;;18.13;97.77
56142;BME280;42018;48.588;10.836;2023-07-28T21:41:55;96473.78;;;18.51;94.73
56142;BME280;42018;48.588;10.836;2023-07-28T22:25:54;96480.91;;;18.47;94.73
56142;BME280;42018;48.588;10.836;2023-07-28T22:28:45;96475.00;;;18.53;93.61
56142;BME280;42018;48.588;10.836;2023-07-28T22:31:31;96478.25;;;18.67;92.68
56142;BME280;42018;48.588;10.836;2023-07-28T22:34:19;96482.97;;;18.79;91.66
56142;BME280;42018;48.588;10.836;2023-07-28T22:37:05;96482.97;;;18.79;91.28
56142;BME280;42018;48.588;10.836;2023-07-28T22:39:54;96480.72;;;18.90;90.01
56142;BME280;42018;48.588;10.836;2023-07-28T22:42:42;96480.84;;;18.94;89.26
56142;BME280;42018;48.588;10.836;2023-07-28T22:45:31;96479.88;;;18.98;88.55
56142;BME280;42018;48.588;10.836;2023-07-28T22:48:19;96482.25;;;19.00;88.18
56142;BME280;42018;48.588;10.836;2023-07-28T22:51:04;96483.91;;;18.83;89.56
56142;BME280;42018;48.588;10.836;2023-07-28T22:53:53;96484.50;;;18.89;89.50
56142;BME280;42018;48.588;10.836;2023-07-28T22:56:38;96474.69;;;18.93;88.66
56142;BME280;42018;48.588;10.836;2023-07-28T22:59:26;96479.41;;;18.96;88.42
56142;BME280;42018;48.588;10.836;2023-07-28T23:02:14;96484.78;;;18.96;88.40
56142;BME280;42018;48.588;10.836;2023-07-28T23:05:00;96484.94;;;19.00;88.12
56142;BME280;42018;48.588;10.836;2023-07-28T23:07:45;96476.72;;;18.96;88.48
56142;BME280;42018;48.588;10.836;2023-07-28T23:10:31;96483.41;;;18.90;88.42
56142;BME280;42018;48.588;10.836;2023-07-28T23:13:17;96481.88;;;18.80;89.42
56142;BME280;42018;48.588;10.836;2023-07-28T23:16:03;96485.09;;;18.65;90.24
56142;BME280;42018;48.588;10.836;2023-07-28T23:18:49;96466.94;;;18.62;89.94
56142;BME280;42018;48.588;10.836;2023-07-28T23:21:37;96478.16;;;18.55;90.37
56142;BME280;42018;48.588;10.836;2023-07-28T23:24:22;96469.66;;;18.53;91.03
56142;BME280;42018;48.588;10.836;2023-07-28T23:27:08;96479.31;;;18.46;90.03
56142;BME280;42018;48.588;10.836;2023-07-28T23:29:54;96474.16;;;18.32;90.32
56142;BME280;42018;48.588;10.836;2023-07-28T23:32:39;96466.97;;;18.15;92.04
56142;BME280;42018;48.588;10.836;2023-07-28T23:35:25;96462.78;;;17.97;94.02
56142;BME280;42018;48.588;10.836;2023-07-28T23:38:11;96463.25;;;17.90;95.18
56142;BME280;42018;48.588;10.836;2023-07-28T23:40:57;96464.97;;;17.94;94.40
56142;BME280;42018;48.588;10.836;2023-07-28T23:43:43;96457.56;;;17.91;94.89
56142;BME280;42018;48.588;10.836;2023-07-28T23:46:28;96457.41;;;17.97;94.91
56142;BME280;42018;48.588;10.836;2023-07-28T23:49:14;96452.31;;;18.12;93.63
56142;BME280;42018;48.588;10.836;2023-07-28T23:52:02;96460.03;;;18.14;93.42
56142;BME280;42018;48.588;10.836;2023-07-28T23:54:48;96457.91;;;18.28;92.39
56142;BME280;42018;48.588;10.836;2023-07-28T23:57:36;96452.69;;;18.32;91.48
